sensor_id;sensor_type;location;lat;lon;timestamp;P1;durP1;ratioP1;P2;durP2;ratioP2
69795;SDS011;57073;45.650;9.612;2023-04-08T00:04:13;29.23;;;15.13;;
69795;SDS011;57073;45.650;9.612;2023-04-08T00:09:14;26.73;;;14.97;;
69795;SDS011;57073;45.650;9.612;2023-04-08T00:14:14;25.77;;;15.03;;
69795;SDS011;57073;45.650;9.612;2023-04-08T00:19:15;27.53;;;15.10;;
69795;SDS011;57073;45.650;9.612;2023-04-08T00:24:15;28.77;;;15.60;;
69795;SDS011;57073;45.650;9.612;2023-04-08T00:29:16;25.73;;;14.65;;
69795;SDS011;57073;45.650;9.612;2023-04-08T00:34:16;25.20;;;13.70;;
69795;SDS011;57073;45.650;9.612;2023-04-08T00:39:17;27.40;;;14.73;;
69795;SDS011;57073;45.650;9.612;2023-04-08T00:44:17;23.53;;;13.73;;
69795;SDS011;57073;45.650;9.612;2023-04-08T00:49:18;26.27;;;14.23;;
69795;SDS011;57073;45.650;9.612;2023-04-08T00:54:18;26.13;;;14.20;;
69795;SDS011;57073;45.650;9.612;2023-04-08T00:59:18;24.57;;;14.50;;
69795;SDS011;57073;45.650;9.612;2023-04-08T01:09:47;27.20;;;13.90;;
69795;SDS011;57073;45.650;9.612;2023-04-08T01:14:51;25.83;;;14.00;;
69795;SDS011;57073;45.650;9.612;2023-04-08T01:19:55;24.20;;;13.40;;
69795;SDS011;57073;45.650;9.612;2023-04-08T01:25:00;24.83;;;13.68;;
69795;SDS011;57073;45.650;9.612;2023-04-08T01:30:05;23.13;;;12.70;;
69795;SDS011;57073;45.650;9.612;2023-04-08T01:35:07;21.17;;;12.87;;
69795;SDS011;57073;45.650;9.612;2023-04-08T01:40:08;25.38;;;13.52;;
69795;SDS011;57073;45.650;9.612;2023-04-08T01:45:10;21.83;;;12.93;;
69795;SDS011;57073;45.650;9.612;2023-04-08T01:50:11;25.23;;;13.77;;
69795;SDS011;57073;45.650;9.612;2023-04-08T01:55:13;24.67;;;13.30;;
69795;SDS011;57073;45.650;9.612;2023-04-08T02:00:15;22.33;;;12.80;;
69795;SDS011;57073;45.650;9.612;2023-04-08T02:05:19;28.98;;;12.95;;
69795;SDS011;57073;45.650;9.612;2023-04-08T02:10:20;23.13;;;12.90;;
69795;SDS011;57073;45.650;9.612;2023-04-08T02:15:20;23.60;;;13.20;;
69795;SDS011;57073;45.650;9.612;2023-04-08T02:25:34;23.67;;;13.48;;
69795;SDS011;57073;45.650;9.612;2023-04-08T02:30:40;21.83;;;12.65;;
69795;SDS011;57073;45.650;9.612;2023-04-08T02:35:43;25.63;;;12.97;;
69795;SDS011;57073;45.650;9.612;2023-04-08T02:40:44;20.75;;;11.95;;
69795;SDS011;57073;45.650;9.612;2023-04-08T02:45:44;20.03;;;11.70;;
69795;SDS011;57073;45.650;9.612;2023-04-08T02:50:45;21.80;;;11.63;;
69795;SDS011;57073;45.650;9.612;2023-04-08T02:55:45;24.23;;;11.60;;
69795;SDS011;57073;45.650;9.612;2023-04-08T03:00:46;22.23;;;11.97;;
69795;SDS011;57073;45.650;9.612;2023-04-08T03:05:46;21.33;;;11.60;;
69795;SDS011;57073;45.650;9.612;2023-04-08T03:10:47;21.47;;;11.90;;
69795;SDS011;57073;45.650;9.612;2023-04-08T03:15:48;21.10;;;11.80;;
69795;SDS011;57073;45.650;9.612;2023-04-08T03:20:48;25.03;;;11.63;;
69795;SDS011;57073;45.650;9.612;2023-04-08T03:25:49;22.23;;;12.60;;
69795;SDS011;57073;45.650;9.612;2023-04-08T03:30:49;22.87;;;12.43;;
69795;SDS011;57073;45.650;9.612;2023-04-08T03:35:50;23.20;;;12.53;;
69795;SDS011;57073;45.650;9.612;2023-04-08T03:40:50;21.70;;;11.27;;
69795;SDS011;57073;45.650;9.612;2023-04-08T03:45:50;25.13;;;11.57;;
69795;SDS011;57073;45.650;9.612;2023-04-08T03:50:51;21.73;;;12.47;;
69795;SDS011;57073;45.650;9.612;2023-04-08T03:55:51;24.70;;;12.20;;
69795;SDS011;57073;45.650;9.612;2023-04-08T04:00:52;24.00;;;12.52;;
69795;SDS011;57073;45.650;9.612;2023-04-08T04:05:52;24.10;;;12.67;;
69795;SDS011;57073;45.650;9.612;2023-04-08T04:10:53;23.63;;;11.83;;
69795;SDS011;57073;45.650;9.612;2023-04-08T04:15:53;23.27;;;11.73;;
69795;SDS011;57073;45.650;9.612;2023-04-08T04:20:54;18.90;;;10.90;;
69795;SDS011;57073;45.650;9.612;2023-04-08T04:25:54;20.83;;;11.30;;
69795;SDS011;57073;45.650;9.612;2023-04-08T04:30:54;25.97;;;12.13;;
69795;SDS011;57073;45.650;9.612;2023-04-08T04:35:55;22.03;;;11.60;;
69795;SDS011;57073;45.650;9.612;2023-04-08T04:40:55;23.13;;;12.10;;
69795;SDS011;57073;45.650;9.612;2023-04-08T04:45:56;23.60;;;11.95;;
69795;SDS011;57073;45.650;9.612;2023-04-08T04:50:58;21.50;;;11.63;;
69795;SDS011;57073;45.650;9.612;2023-04-08T04:56:00;23.33;;;11.27;;
69795;SDS011;57073;45.650;9.612;2023-04-08T05:01:00;21.03;;;11.00;;
69795;SDS011;57073;45.650;9.612;2023-04-08T05:06:01;23.47;;;11.73;;
69795;SDS011;57073;45.650;9.612;2023-04-08T05:11:01;18.07;;;10.57;;
69795;SDS011;57073;45.650;9.612;2023-04-08T05:16:01;19.97;;;11.13;;
69795;SDS011;57073;45.650;9.612;2023-04-08T05:21:02;19.27;;;10.53;;
69795;SDS011;57073;45.650;9.612;2023-04-08T05:26:05;23.83;;;10.70;;
69795;SDS011;57073;45.650;9.612;2023-04-08T05:31:07;19.80;;;10.95;;
69795;SDS011;57073;45.650;9.612;2023-04-08T05:36:07;19.17;;;10.47;;
69795;SDS011;57073;45.650;9.612;2023-04-08T05:41:09;19.57;;;10.50;;
69795;SDS011;57073;45.650;9.612;2023-04-08T05:46:10;17.73;;;9.57;;
69795;SDS011;57073;45.650;9.612;2023-04-08T05:51:14;18.53;;;9.43;;
69795;SDS011;57073;45.650;9.612;2023-04-08T05:56:14;19.67;;;10.60;;
69795;SDS011;57073;45.650;9.612;2023-04-08T06:01:15;19.30;;;9.87;;
69795;SDS011;57073;45.650;9.612;2023-04-08T06:06:15;20.05;;;10.80;;
69795;SDS011;57073;45.650;9.612;2023-04-08T06:11:16;19.03;;;10.90;;
69795;SDS011;57073;45.650;9.612;2023-04-08T06:16:16;23.73;;;11.77;;
69795;SDS011;57073;45.650;9.612;2023-04-08T06:21:16;23.37;;;11.43;;
69795;SDS011;57073;45.650;9.612;2023-04-08T06:26:17;17.97;;;10.33;;
69795;SDS011;57073;45.650;9.612;2023-04-08T06:31:18;24.10;;;10.83;;
69795;SDS011;57073;45.650;9.612;2023-04-08T06:36:18;19.37;;;10.40;;
69795;SDS011;57073;45.650;9.612;2023-04-08T06:41:18;17.17;;;9.57;;
69795;SDS011;57073;45.650;9.612;2023-04-08T06:46:19;17.53;;;10.20;;
69795;SDS011;57073;45.650;9.612;2023-04-08T06:51:19;20.73;;;10.93;;
69795;SDS011;57073;45.650;9.612;2023-04-08T06:56:20;17.23;;;10.57;;
69795;SDS011;57073;45.650;9.612;2023-04-08T07:01:21;20.50;;;10.30;;
69795;SDS011;57073;45.650;9.612;2023-04-08T07:06:22;18.40;;;10.83;;
69795;SDS011;57073;45.650;9.612;2023-04-08T07:11:23;20.63;;;11.83;;
69795;SDS011;57073;45.650;9.612;2023-04-08T07:16:23;22.83;;;12.70;;
69795;SDS011;57073;45.650;9.612;2023-04-08T07:21:24;23.17;;;13.40;;
69795;SDS011;57073;45.650;9.612;2023-04-08T07:26:24;22.13;;;13.00;;
69795;SDS011;57073;45.650;9.612;2023-04-08T07:31:25;21.73;;;13.67;;
69795;SDS011;57073;45.650;9.612;2023-04-08T07:36:26;25.23;;;13.60;;
69795;SDS011;57073;45.650;9.612;2023-04-08T07:41:27;23.95;;;13.82;;
69795;SDS011;57073;45.650;9.612;2023-04-08T07:46:27;24.53;;;15.20;;
69795;SDS011;57073;45.650;9.612;2023-04-08T07:51:27;22.37;;;14.13;;
69795;SDS011;57073;45.650;9.612;2023-04-08T07:56:28;27.60;;;15.55;;
69795;SDS011;57073;45.650;9.612;2023-04-08T08:01:29;25.20;;;14.50;;
69795;SDS011;57073;45.650;9.612;2023-04-08T08:06:30;24.37;;;15.20;;
69795;SDS011;57073;45.650;9.612;2023-04-08T08:11:33;27.05;;;15.50;;
69795;SDS011;57073;45.650;9.612;2023-04-08T08:16:33;25.43;;;15.07;;
69795;SDS011;57073;45.650;9.612;2023-04-08T08:21:36;22.60;;;15.10;;
69795;SDS011;57073;45.650;9.612;2023-04-08T08:26:38;27.75;;;15.88;;
69795;SDS011;57073;45.650;9.612;2023-04-08T08:31:38;23.57;;;14.77;;
69795;SDS011;57073;45.650;9.612;2023-04-08T08:36:39;26.00;;;14.93;;
69795;SDS011;57073;45.650;9.612;2023-04-08T08:41:39;25.87;;;15.47;;
69795;SDS011;57073;45.650;9.612;2023-04-08T08:46:42;26.15;;;15.70;;
69795;SDS011;57073;45.650;9.612;2023-04-08T08:51:46;32.13;;;17.73;;
69795;SDS011;57073;45.650;9.612;2023-04-08T08:56:48;36.40;;;18.05;;
69795;SDS011;57073;45.650;9.612;2023-04-08T09:01:48;29.80;;;17.57;;
69795;SDS011;57073;45.650;9.612;2023-04-08T09:06:49;30.73;;;18.30;;
69795;SDS011;57073;45.650;9.612;2023-04-08T09:12:07;30.42;;;17.35;;
69795;SDS011;57073;45.650;9.612;2023-04-08T09:17:08;27.63;;;17.33;;
69795;SDS011;57073;45.650;9.612;2023-04-08T09:22:09;30.45;;;18.30;;
69795;SDS011;57073;45.650;9.612;2023-04-08T09:27:10;28.73;;;17.50;;
69795;SDS011;57073;45.650;9.612;2023-04-08T09:32:12;30.07;;;16.93;;
69795;SDS011;57073;45.650;9.612;2023-04-08T09:37:13;28.23;;;16.90;;
69795;SDS011;57073;45.650;9.612;2023-04-08T09:42:13;30.03;;;16.57;;
69795;SDS011;57073;45.650;9.612;2023-04-08T09:47:18;28.83;;;16.60;;
69795;SDS011;57073;45.650;9.612;2023-04-08T09:52:20;26.65;;;15.80;;
69795;SDS011;57073;45.650;9.612;2023-04-08T09:57:39;29.03;;;15.77;;
69795;SDS011;57073;45.650;9.612;2023-04-08T10:07:43;23.20;;;14.02;;
69795;SDS011;57073;45.650;9.612;2023-04-08T10:12:44;31.73;;;16.00;;
69795;SDS011;57073;45.650;9.612;2023-04-08T10:17:46;24.57;;;14.33;;
69795;SDS011;57073;45.650;9.612;2023-04-08T10:22:46;25.10;;;14.27;;
69795;SDS011;57073;45.650;9.612;2023-04-08T10:27:48;23.90;;;14.13;;
69795;SDS011;57073;45.650;9.612;2023-04-08T10:32:48;25.42;;;14.45;;
69795;SDS011;57073;45.650;9.612;2023-04-08T10:37:49;25.23;;;13.50;;
69795;SDS011;57073;45.650;9.612;2023-04-08T10:42:56;23.70;;;13.67;;
69795;SDS011;57073;45.650;9.612;2023-04-08T10:48:10;24.02;;;14.38;;
69795;SDS011;57073;45.650;9.612;2023-04-08T10:53:14;25.93;;;14.37;;
69795;SDS011;57073;45.650;9.612;2023-04-08T10:58:15;22.02;;;13.70;;
69795;SDS011;57073;45.650;9.612;2023-04-08T11:03:15;24.43;;;14.17;;
69795;SDS011;57073;45.650;9.612;2023-04-08T11:08:16;25.30;;;14.77;;
69795;SDS011;57073;45.650;9.612;2023-04-08T11:13:18;27.00;;;14.97;;
69795;SDS011;57073;45.650;9.612;2023-04-08T11:18:21;24.50;;;14.57;;
69795;SDS011;57073;45.650;9.612;2023-04-08T11:23:25;23.50;;;13.10;;
69795;SDS011;57073;45.650;9.612;2023-04-08T11:28:26;22.97;;;12.93;;
69795;SDS011;57073;45.650;9.612;2023-04-08T11:33:29;23.10;;;12.63;;
69795;SDS011;57073;45.650;9.612;2023-04-08T11:38:34;24.92;;;14.65;;
69795;SDS011;57073;45.650;9.612;2023-04-08T11:43:38;23.98;;;14.50;;
69795;SDS011;57073;45.650;9.612;2023-04-08T11:48:40;23.50;;;13.77;;
69795;SDS011;57073;45.650;9.612;2023-04-08T11:53:40;23.50;;;14.17;;
69795;SDS011;57073;45.650;9.612;2023-04-08T11:58:47;25.35;;;15.35;;
69795;SDS011;57073;45.650;9.612;2023-04-08T12:03:54;23.17;;;14.73;;
69795;SDS011;57073;45.650;9.612;2023-04-08T12:08:55;27.00;;;14.33;;
69795;SDS011;57073;45.650;9.612;2023-04-08T12:13:55;23.80;;;14.15;;
69795;SDS011;57073;45.650;9.612;2023-04-08T12:18:56;23.23;;;13.90;;
69795;SDS011;57073;45.650;9.612;2023-04-08T12:23:56;21.53;;;13.50;;
69795;SDS011;57073;45.650;9.612;2023-04-08T12:28:57;22.43;;;13.93;;
69795;SDS011;57073;45.650;9.612;2023-04-08T12:33:57;25.00;;;14.00;;
69795;SDS011;57073;45.650;9.612;2023-04-08T12:38:57;22.67;;;12.70;;
69795;SDS011;57073;45.650;9.612;2023-04-08T12:43:58;21.73;;;12.00;;
69795;SDS011;57073;45.650;9.612;2023-04-08T12:48:58;20.67;;;12.37;;
69795;SDS011;57073;45.650;9.612;2023-04-08T12:53:59;23.27;;;13.52;;
69795;SDS011;57073;45.650;9.612;2023-04-08T12:59:00;18.08;;;11.10;;
69795;SDS011;57073;45.650;9.612;2023-04-08T13:04:01;19.17;;;11.02;;
69795;SDS011;57073;45.650;9.612;2023-04-08T13:09:01;17.70;;;10.03;;
69795;SDS011;57073;45.650;9.612;2023-04-08T13:14:02;18.17;;;10.57;;
69795;SDS011;57073;45.650;9.612;2023-04-08T13:19:02;17.77;;;11.03;;
69795;SDS011;57073;45.650;9.612;2023-04-08T13:24:03;21.43;;;11.27;;
69795;SDS011;57073;45.650;9.612;2023-04-08T13:29:03;17.45;;;10.52;;
69795;SDS011;57073;45.650;9.612;2023-04-08T13:34:04;17.23;;;11.03;;
69795;SDS011;57073;45.650;9.612;2023-04-08T13:39:04;18.93;;;10.30;;
69795;SDS011;57073;45.650;9.612;2023-04-08T13:44:04;15.33;;;9.63;;
69795;SDS011;57073;45.650;9.612;2023-04-08T13:49:04;16.17;;;9.87;;
69795;SDS011;57073;45.650;9.612;2023-04-08T13:54:05;17.43;;;9.53;;
69795;SDS011;57073;45.650;9.612;2023-04-08T13:59:05;14.50;;;9.33;;
69795;SDS011;57073;45.650;9.612;2023-04-08T14:04:06;20.10;;;9.60;;
69795;SDS011;57073;45.650;9.612;2023-04-08T14:09:06;16.10;;;10.00;;
69795;SDS011;57073;45.650;9.612;2023-04-08T14:14:07;15.63;;;9.90;;
69795;SDS011;57073;45.650;9.612;2023-04-08T14:19:07;15.57;;;9.80;;
69795;SDS011;57073;45.650;9.612;2023-04-08T14:24:08;13.90;;;8.63;;
69795;SDS011;57073;45.650;9.612;2023-04-08T14:29:08;14.70;;;9.30;;
69795;SDS011;57073;45.650;9.612;2023-04-08T14:34:09;14.50;;;9.40;;
69795;SDS011;57073;45.650;9.612;2023-04-08T14:39:09;16.30;;;10.17;;
69795;SDS011;57073;45.650;9.612;2023-04-08T14:44:11;15.43;;;9.77;;
69795;SDS011;57073;45.650;9.612;2023-04-08T14:49:11;16.50;;;9.23;;
69795;SDS011;57073;45.650;9.612;2023-04-08T14:54:11;14.90;;;9.10;;
69795;SDS011;57073;45.650;9.612;2023-04-08T14:59:13;13.97;;;8.90;;
69795;SDS011;57073;45.650;9.612;2023-04-08T15:04:13;13.13;;;8.70;;
69795;SDS011;57073;45.650;9.612;2023-04-08T15:09:13;13.07;;;8.23;;
69795;SDS011;57073;45.650;9.612;2023-04-08T15:14:14;15.95;;;8.90;;
69795;SDS011;57073;45.650;9.612;2023-04-08T15:19:14;13.37;;;8.33;;
69795;SDS011;57073;45.650;9.612;2023-04-08T15:24:17;13.30;;;9.00;;
69795;SDS011;57073;45.650;9.612;2023-04-08T15:29:18;14.43;;;8.82;;
69795;SDS011;57073;45.650;9.612;2023-04-08T15:34:22;14.40;;;9.48;;
69795;SDS011;57073;45.650;9.612;2023-04-08T15:39:22;14.53;;;9.00;;
69795;SDS011;57073;45.650;9.612;2023-04-08T15:44:23;13.80;;;9.23;;
69795;SDS011;57073;45.650;9.612;2023-04-08T15:49:24;14.77;;;8.80;;
69795;SDS011;57073;45.650;9.612;2023-04-08T15:54:24;15.17;;;9.43;;
69795;SDS011;57073;45.650;9.612;2023-04-08T15:59:27;18.00;;;9.37;;
69795;SDS011;57073;45.650;9.612;2023-04-08T16:04:28;15.55;;;9.25;;
69795;SDS011;57073;45.650;9.612;2023-04-08T16:09:28;15.20;;;9.43;;
69795;SDS011;57073;45.650;9.612;2023-04-08T16:14:29;18.30;;;9.13;;
69795;SDS011;57073;45.650;9.612;2023-04-08T16:19:29;16.60;;;9.00;;
69795;SDS011;57073;45.650;9.612;2023-04-08T16:24:30;12.70;;;9.10;;
69795;SDS011;57073;45.650;9.612;2023-04-08T16:29:34;17.92;;;10.20;;
69795;SDS011;57073;45.650;9.612;2023-04-08T16:34:35;14.93;;;8.07;;
69795;SDS011;57073;45.650;9.612;2023-04-08T16:39:35;12.90;;;9.13;;
69795;SDS011;57073;45.650;9.612;2023-04-08T16:44:36;11.77;;;8.13;;
69795;SDS011;57073;45.650;9.612;2023-04-08T16:49:36;11.90;;;8.47;;
69795;SDS011;57073;45.650;9.612;2023-04-08T16:54:36;12.23;;;8.10;;
69795;SDS011;57073;45.650;9.612;2023-04-08T16:59:37;11.33;;;7.90;;
69795;SDS011;57073;45.650;9.612;2023-04-08T17:04:38;14.57;;;7.70;;
69795;SDS011;57073;45.650;9.612;2023-04-08T17:09:40;10.90;;;7.75;;
69795;SDS011;57073;45.650;9.612;2023-04-08T17:14:40;14.17;;;7.93;;
69795;SDS011;57073;45.650;9.612;2023-04-08T17:19:41;13.03;;;8.10;;
69795;SDS011;57073;45.650;9.612;2023-04-08T17:24:42;13.80;;;8.43;;
69795;SDS011;57073;45.650;9.612;2023-04-08T17:29:44;16.73;;;8.68;;
69795;SDS011;57073;45.650;9.612;2023-04-08T17:34:45;16.23;;;8.90;;
69795;SDS011;57073;45.650;9.612;2023-04-08T17:39:45;16.83;;;8.93;;
69795;SDS011;57073;45.650;9.612;2023-04-08T17:44:46;27.52;;;12.95;;
69795;SDS011;57073;45.650;9.612;2023-04-08T17:49:47;21.47;;;12.57;;
69795;SDS011;57073;45.650;9.612;2023-04-08T17:54:47;22.77;;;13.20;;
69795;SDS011;57073;45.650;9.612;2023-04-08T17:59:47;23.73;;;13.67;;
69795;SDS011;57073;45.650;9.612;2023-04-08T18:04:48;27.60;;;15.50;;
69795;SDS011;57073;45.650;9.612;2023-04-08T18:09:49;23.70;;;13.52;;
69795;SDS011;57073;45.650;9.612;2023-04-08T18:14:49;24.37;;;13.60;;
69795;SDS011;57073;45.650;9.612;2023-04-08T18:19:50;23.30;;;12.53;;
69795;SDS011;57073;45.650;9.612;2023-04-08T18:24:50;22.10;;;12.03;;
69795;SDS011;57073;45.650;9.612;2023-04-08T18:29:50;22.13;;;12.30;;
69795;SDS011;57073;45.650;9.612;2023-04-08T18:34:52;22.33;;;11.35;;
69795;SDS011;57073;45.650;9.612;2023-04-08T18:39:53;19.90;;;10.90;;
69795;SDS011;57073;45.650;9.612;2023-04-08T18:44:53;18.67;;;11.23;;
69795;SDS011;57073;45.650;9.612;2023-04-08T18:49:53;20.80;;;11.17;;
69795;SDS011;57073;45.650;9.612;2023-04-08T18:54:55;23.05;;;11.15;;
69795;SDS011;57073;45.650;9.612;2023-04-08T18:59:55;20.33;;;11.57;;
69795;SDS011;57073;45.650;9.612;2023-04-08T19:04:56;18.63;;;10.47;;
69795;SDS011;57073;45.650;9.612;2023-04-08T19:09:57;21.10;;;11.10;;
69795;SDS011;57073;45.650;9.612;2023-04-08T19:14:57;19.23;;;10.77;;
69795;SDS011;57073;45.650;9.612;2023-04-08T19:19:58;21.90;;;11.90;;
69795;SDS011;57073;45.650;9.612;2023-04-08T19:24:58;19.47;;;10.77;;
69795;SDS011;57073;45.650;9.612;2023-04-08T19:29:59;23.03;;;12.23;;
69795;SDS011;57073;45.650;9.612;2023-04-08T19:35:00;21.27;;;13.00;;
69795;SDS011;57073;45.650;9.612;2023-04-08T19:40:00;22.65;;;12.68;;
69795;SDS011;57073;45.650;9.612;2023-04-08T19:45:01;20.43;;;11.27;;
69795;SDS011;57073;45.650;9.612;2023-04-08T19:50:02;21.13;;;11.75;;
69795;SDS011;57073;45.650;9.612;2023-04-08T19:55:02;20.87;;;11.63;;
69795;SDS011;57073;45.650;9.612;2023-04-08T20:00:03;18.07;;;10.53;;
69795;SDS011;57073;45.650;9.612;2023-04-08T20:05:03;18.37;;;10.27;;
69795;SDS011;57073;45.650;9.612;2023-04-08T20:10:04;18.13;;;10.47;;
69795;SDS011;57073;45.650;9.612;2023-04-08T20:15:06;17.58;;;9.80;;
69795;SDS011;57073;45.650;9.612;2023-04-08T20:20:07;18.77;;;10.23;;
69795;SDS011;57073;45.650;9.612;2023-04-08T20:25:08;16.20;;;9.90;;
69795;SDS011;57073;45.650;9.612;2023-04-08T20:30:09;17.13;;;9.87;;
69795;SDS011;57073;45.650;9.612;2023-04-08T20:35:09;17.30;;;9.80;;
69795;SDS011;57073;45.650;9.612;2023-04-08T20:40:10;16.83;;;9.87;;
69795;SDS011;57073;45.650;9.612;2023-04-08T20:45:11;17.27;;;9.93;;
69795;SDS011;57073;45.650;9.612;2023-04-08T20:50:11;19.97;;;10.30;;
69795;SDS011;57073;45.650;9.612;2023-04-08T20:55:12;18.10;;;10.37;;
69795;SDS011;57073;45.650;9.612;2023-04-08T21:00:12;16.87;;;10.23;;
69795;SDS011;57073;45.650;9.612;2023-04-08T21:05:14;20.83;;;10.63;;
69795;SDS011;57073;45.650;9.612;2023-04-08T21:10:15;17.27;;;10.30;;
69795;SDS011;57073;45.650;9.612;2023-04-08T21:15:16;17.17;;;10.10;;
69795;SDS011;57073;45.650;9.612;2023-04-08T21:20:16;17.30;;;10.53;;
69795;SDS011;57073;45.650;9.612;2023-04-08T21:25:17;18.53;;;10.97;;
69795;SDS011;57073;45.650;9.612;2023-04-08T21:30:17;17.97;;;10.77;;
69795;SDS011;57073;45.650;9.612;2023-04-08T21:35:20;20.83;;;11.13;;
69795;SDS011;57073;45.650;9.612;2023-04-08T21:40:20;20.00;;;11.35;;
69795;SDS011;57073;45.650;9.612;2023-04-08T21:45:21;18.80;;;10.07;;
69795;SDS011;57073;45.650;9.612;2023-04-08T21:50:21;18.93;;;10.87;;
69795;SDS011;57073;45.650;9.612;2023-04-08T21:55:22;19.40;;;10.53;;
69795;SDS011;57073;45.650;9.612;2023-04-08T22:00:22;18.70;;;10.60;;
69795;SDS011;57073;45.650;9.612;2023-04-08T22:05:23;20.50;;;11.18;;
69795;SDS011;57073;45.650;9.612;2023-04-08T22:10:23;18.23;;;10.83;;
69795;SDS011;57073;45.650;9.612;2023-04-08T22:15:24;19.83;;;11.07;;
69795;SDS011;57073;45.650;9.612;2023-04-08T22:20:25;21.40;;;11.73;;
69795;SDS011;57073;45.650;9.612;2023-04-08T22:25:25;21.97;;;12.87;;
69795;SDS011;57073;45.650;9.612;2023-04-08T22:30:25;21.07;;;12.27;;
69795;SDS011;57073;45.650;9.612;2023-04-08T22:35:26;21.40;;;12.20;;
69795;SDS011;57073;45.650;9.612;2023-04-08T22:40:27;18.50;;;10.60;;
69795;SDS011;57073;45.650;9.612;2023-04-08T22:45:27;16.87;;;10.33;;
69795;SDS011;57073;45.650;9.612;2023-04-08T22:50:28;17.30;;;10.43;;
69795;SDS011;57073;45.650;9.612;2023-04-08T22:55:29;18.97;;;10.50;;
69795;SDS011;57073;45.650;9.612;2023-04-08T23:00:29;17.90;;;10.23;;
69795;SDS011;57073;45.650;9.612;2023-04-08T23:05:30;17.43;;;9.33;;
69795;SDS011;57073;45.650;9.612;2023-04-08T23:10:30;17.67;;;10.20;;
69795;SDS011;57073;45.650;9.612;2023-04-08T23:15:31;17.03;;;10.27;;
69795;SDS011;57073;45.650;9.612;2023-04-08T23:20:31;16.90;;;10.15;;
69795;SDS011;57073;45.650;9.612;2023-04-08T23:25:33;18.25;;;10.60;;
69795;SDS011;57073;45.650;9.612;2023-04-08T23:30:35;16.73;;;10.03;;
69795;SDS011;57073;45.650;9.612;2023-04-08T23:35:37;17.65;;;10.38;;
69795;SDS011;57073;45.650;9.612;2023-04-08T23:40:38;17.03;;;10.13;;
69795;SDS011;57073;45.650;9.612;2023-04-08T23:45:38;16.87;;;9.57;;
69795;SDS011;57073;45.650;9.612;2023-04-08T23:50:39;20.33;;;10.33;;
69795;SDS011;57073;45.650;9.612;2023-04-08T23:55:39;17.17;;;9.87;;
